Time;durP1;ratioP1;P1;durP2;ratioP2;P2;SDS_P1;SDS_P2;PMS_P1;PMS_P2;Temp;Humidity;BMP_temperature;BMP_pressure;BME280_temperature;BME280_humidity;BME280_pressure;Samples;Min_cycle;Max_cycle;Signal;HPM_P1;HPM_P2
2021/11/24 00:00:25;;;;;;;7.10;4.25;;;5.10;43.30;;;;;;4940401;28;20255;-86
2021/11/24 00:03:14;;;;;;;7.35;4.20;;;5.00;42.70;;;;;;4950321;28;20252;-85
2021/11/24 00:06:03;;;;;;;3.97;3.05;;;5.00;40.40;;;;;;4949863;28;20196;-86
2021/11/24 00:08:52;;;;;;;6.10;3.50;;;5.00;40.50;;;;;;4944625;28;20743;-87
2021/11/24 00:11:41;;;;;;;3.45;3.03;;;4.90;40.70;;;;;;4946793;28;20205;-86
2021/11/24 00:14:30;;;;;;;7.65;5.00;;;4.90;39.90;;;;;;4953017;28;20442;-86
2021/11/24 00:17:19;;;;;;;6.67;3.63;;;4.90;41.70;;;;;;4943816;28;20465;-86
2021/11/24 00:20:09;;;;;;;6.63;4.53;;;4.80;41.00;;;;;;4943852;28;20464;-86
2021/11/24 00:22:58;;;;;;;6.22;4.43;;;4.80;38.40;;;;;;4948685;28;20206;-85
2021/11/24 00:25:46;;;;;;;5.75;4.55;;;4.80;37.80;;;;;;4941255;28;20225;-85
2021/11/24 00:28:36;;;;;;;5.72;4.03;;;4.70;39.00;;;;;;4941756;28;20244;-84
2021/11/24 00:31:27;;;;;;;8.32;4.72;;;4.70;39.20;;;;;;4952792;28;20219;-86
2021/11/24 00:34:16;;;;;;;9.50;4.13;;;4.70;37.60;;;;;;4951757;29;20680;-86
2021/11/24 00:37:05;;;;;;;5.07;3.50;;;4.70;38.40;;;;;;4954123;28;20196;-86
2021/11/24 00:39:53;;;;;;;8.30;4.05;;;4.70;39.50;;;;;;4939209;29;20706;-85
2021/11/24 00:42:42;;;;;;;4.13;3.78;;;4.70;38.80;;;;;;4946457;28;20231;-86
2021/11/24 00:45:32;;;;;;;4.80;3.47;;;4.70;39.80;;;;;;4944770;28;20574;-86
2021/11/24 00:48:21;;;;;;;4.07;3.67;;;4.60;39.50;;;;;;4942041;28;20233;-86
2021/11/24 00:51:10;;;;;;;4.35;3.95;;;4.60;39.40;;;;;;4947994;28;20208;-85
2021/11/24 00:53:58;;;;;;;6.47;4.32;;;4.60;38.90;;;;;;4946824;29;20203;-86
2021/11/24 00:56:48;;;;;;;4.40;3.60;;;4.60;37.10;;;;;;4945471;28;20292;-86
2021/11/24 00:59:37;;;;;;;3.88;3.30;;;4.70;34.60;;;;;;4945370;29;20286;-83
2021/11/24 01:02:27;;;;;;;7.82;4.47;;;4.60;36.40;;;;;;4939643;28;20648;-87
2021/11/24 01:05:16;;;;;;;6.05;4.68;;;4.60;34.70;;;;;;4942581;28;20225;-86
2021/11/24 01:08:05;;;;;;;4.30;3.13;;;4.60;34.80;;;;;;4947028;28;20225;-87
2021/11/24 01:10:53;;;;;;;4.43;3.75;;;4.50;35.50;;;;;;4944605;28;20200;-87
2021/11/24 01:13:42;;;;;;;6.68;4.35;;;4.50;35.60;;;;;;4949173;28;20208;-87
2021/11/24 01:16:31;;;;;;;8.48;4.18;;;4.50;36.70;;;;;;4944380;28;20206;-87
2021/11/24 01:19:21;;;;;;;7.22;3.40;;;4.50;39.30;;;;;;4941252;28;20220;-87
2021/11/24 01:22:10;;;;;;;5.72;4.00;;;4.50;39.40;;;;;;4942065;28;20209;-88
2021/11/24 01:24:59;;;;;;;7.13;4.20;;;4.50;37.60;;;;;;4935859;29;20217;-87
2021/11/24 01:27:47;;;;;;;6.60;3.72;;;4.40;37.00;;;;;;4948536;28;20227;-87
2021/11/24 01:30:36;;;;;;;5.97;3.88;;;4.40;34.60;;;;;;4950905;28;20212;-88
2021/11/24 01:33:25;;;;;;;3.88;2.80;;;4.40;33.10;;;;;;4952920;28;20754;-87
2021/11/24 01:36:15;;;;;;;4.93;3.83;;;4.50;32.30;;;;;;4948185;28;20208;-85
2021/11/24 01:39:04;;;;;;;5.35;4.82;;;4.40;34.70;;;;;;4937721;29;20239;-88
2021/11/24 01:41:53;;;;;;;8.23;3.72;;;4.50;35.60;;;;;;4938556;29;20777;-88
2021/11/24 01:44:41;;;;;;;5.00;4.32;;;4.40;36.80;;;;;;4941590;29;20688;-88
2021/11/24 01:47:30;;;;;;;6.60;4.68;;;4.40;35.20;;;;;;4929874;29;20240;-90
2021/11/24 01:50:20;;;;;;;5.15;3.63;;;4.30;34.40;;;;;;4934929;29;20210;-87
2021/11/24 01:53:10;;;;;;;5.95;3.63;;;4.60;33.80;;;;;;4943874;28;20587;-88
2021/11/24 01:56:00;;;;;;;6.15;3.00;;;4.40;34.80;;;;;;4941269;29;20204;-88
2021/11/24 01:58:48;;;;;;;4.28;3.88;;;4.30;33.00;;;;;;4946991;28;20235;-88
2021/11/24 02:01:39;;;;;;;4.80;3.45;;;4.30;32.10;;;;;;4944325;28;20217;-88
2021/11/24 02:04:27;;;;;;;3.40;2.80;;;4.20;29.90;;;;;;4929254;28;20226;-88
2021/11/24 02:07:16;;;;;;;4.82;3.80;;;4.20;30.20;;;;;;4948030;28;20231;-88
2021/11/24 02:10:07;;;;;;;6.15;4.30;;;4.50;31.00;;;;;;4951120;28;20711;-88
2021/11/24 02:12:56;;;;;;;3.40;3.10;;;4.20;29.30;;;;;;4949705;28;20400;-88
2021/11/24 02:15:44;;;;;;;4.57;3.97;;;4.20;29.30;;;;;;4948093;28;20571;-88
2021/11/24 02:18:33;;;;;;;4.65;3.58;;;4.30;29.10;;;;;;4948372;29;20287;-86
2021/11/24 02:21:23;;;;;;;4.72;2.92;;;4.20;44.10;;;;;;4952162;28;20208;-88
2021/11/24 02:24:11;;;;;;;6.03;3.55;;;4.10;30.00;;;;;;4954876;28;20708;-87
2021/11/24 02:27:02;;;;;;;3.80;3.40;;;4.10;29.80;;;;;;4961487;28;20239;-87
2021/11/24 02:29:50;;;;;;;8.13;4.22;;;4.10;29.70;;;;;;4953302;28;20202;-87
2021/11/24 02:32:39;;;;;;;5.82;4.05;;;4.10;38.40;;;;;;4927622;29;20613;-87
2021/11/24 02:35:27;;;;;;;6.07;3.80;;;4.10;31.20;;;;;;4942261;29;20218;-87
2021/11/24 02:38:18;;;;;;;5.63;3.83;;;4.20;30.40;;;;;;4950237;28;20236;-88
2021/11/24 02:41:07;;;;;;;4.22;3.30;;;4.30;27.60;;;;;;4955080;28;20686;-88
2021/11/24 02:43:55;;;;;;;5.00;4.07;;;4.00;27.10;;;;;;4954445;28;20216;-89
2021/11/24 02:46:44;;;;;;;4.30;3.90;;;4.00;28.00;;;;;;4940790;28;20221;-88
2021/11/24 02:49:34;;;;;;;6.82;3.47;;;4.00;27.50;;;;;;4945810;28;20215;-87
2021/11/24 02:52:24;;;;;;;9.25;4.75;;;3.90;28.40;;;;;;4940918;28;20204;-88
2021/11/24 02:55:16;;;;;;;5.55;3.90;;;3.90;27.70;;;;;;4949883;28;20203;-88
2021/11/24 02:58:04;;;;;;;3.30;2.95;;;4.20;27.30;;;;;;4948972;28;20229;-88
2021/11/24 03:00:54;;;;;;;4.72;4.28;;;3.90;27.40;;;;;;4945983;28;20208;-88
2021/11/24 03:03:43;;;;;;;5.03;3.40;;;3.90;27.60;;;;;;4942310;28;20284;-87
2021/11/24 03:06:32;;;;;;;6.13;4.10;;;4.00;28.70;;;;;;4939144;28;20722;-86
2021/11/24 03:09:20;;;;;;;6.20;3.05;;;4.00;30.70;;;;;;4950636;28;20231;-87
2021/11/24 03:12:11;;;;;;;5.22;3.15;;;4.00;29.50;;;;;;4943831;29;20219;-87
2021/11/24 03:15:00;;;;;;;3.92;3.38;;;4.00;27.60;;;;;;4949302;28;20290;-87
2021/11/24 03:17:48;;;;;;;4.85;3.17;;;4.00;26.60;;;;;;4947226;29;20226;-88
2021/11/24 03:20:37;;;;;;;3.85;3.28;;;4.00;27.00;;;;;;4946076;28;20208;-88
2021/11/24 03:23:25;;;;;;;5.75;2.92;;;3.90;27.80;;;;;;4941283;28;20697;-89
2021/11/24 03:26:15;;;;;;;4.32;3.22;;;3.90;29.60;;;;;;4949406;28;20222;-86
2021/11/24 03:29:05;;;;;;;4.65;2.95;;;3.90;27.20;;;;;;4954211;28;20217;-90
2021/11/24 03:31:54;;;;;;;6.18;4.10;;;3.80;27.30;;;;;;4947158;28;20217;-89
2021/11/24 03:34:42;;;;;;;4.72;3.13;;;4.10;26.30;;;;;;4946841;28;20711;-90
2021/11/24 03:37:31;;;;;;;4.25;3.00;;;4.10;26.40;;;;;;4936554;28;20720;-88
2021/11/24 03:40:22;;;;;;;4.63;3.50;;;3.90;25.70;;;;;;4949848;28;20207;-89
2021/11/24 03:43:10;;;;;;;6.95;3.10;;;3.90;25.90;;;;;;4945035;28;20218;-89
2021/11/24 03:46:00;;;;;;;5.07;3.58;;;3.90;27.10;;;;;;4949445;28;20222;-89
2021/11/24 03:48:49;;;;;;;7.00;3.08;;;3.90;28.20;;;;;;4947215;28;20263;-88
2021/11/24 03:51:38;;;;;;;6.50;3.47;;;3.90;35.00;;;;;;4941288;28;20543;-88
2021/11/24 03:54:26;;;;;;;2.85;2.65;;;3.90;28.00;;;;;;4952210;28;20222;-89
2021/11/24 03:57:15;;;;;;;4.20;2.90;;;3.90;27.90;;;;;;4949906;28;20229;-86
2021/11/24 04:00:05;;;;;;;4.25;3.85;;;3.80;25.60;;;;;;4950512;29;20212;-87
2021/11/24 04:02:55;;;;;;;5.40;3.33;;;3.80;25.20;;;;;;4949502;28;20210;-87
2021/11/24 04:05:43;;;;;;;2.60;2.40;;;4.10;25.80;;;;;;4947942;28;20207;-88
2021/11/24 04:08:32;;;;;;;4.38;2.95;;;3.80;28.20;;;;;;4937076;28;20233;-87
2021/11/24 04:11:21;;;;;;;3.67;2.97;;;3.80;26.50;;;;;;4946961;28;20223;-88
2021/11/24 04:14:10;;;;;;;3.58;3.03;;;3.80;27.40;;;;;;4946114;28;20200;-88
2021/11/24 04:16:58;;;;;;;4.28;2.70;;;3.80;28.20;;;;;;4951036;28;20212;-86
2021/11/24 04:19:48;;;;;;;3.17;2.88;;;3.70;28.90;;;;;;4953129;28;20197;-87
2021/11/24 04:22:37;;;;;;;3.28;2.95;;;3.80;29.10;;;;;;4947306;28;20217;-85
2021/11/24 04:25:25;;;;;;;3.53;3.00;;;3.70;29.40;;;;;;4938857;28;20213;-87
2021/11/24 04:28:14;;;;;;;3.38;2.70;;;3.90;30.90;;;;;;4951986;28;20500;-88
2021/11/24 04:31:05;;;;;;;2.80;2.60;;;3.90;30.70;;;;;;4954927;28;20215;-88
2021/11/24 04:33:54;;;;;;;5.57;2.97;;;3.70;32.20;;;;;;4947730;29;20217;-88
2021/11/24 04:36:44;;;;;;;3.78;3.00;;;3.80;35.80;;;;;;4942412;28;20699;-88
2021/11/24 04:39:33;;;;;;;6.28;2.78;;;3.70;32.40;;;;;;4945672;28;20223;-88
2021/11/24 04:42:21;;;;;;;3.50;3.13;;;3.80;36.80;;;;;;4955692;28;20221;-89
2021/11/24 04:45:10;;;;;;;4.75;3.08;;;4.00;34.70;;;;;;4948971;28;20204;-87
2021/11/24 04:47:59;;;;;;;5.75;3.25;;;3.70;37.10;;;;;;4949209;28;20227;-87
2021/11/24 04:50:48;;;;;;;3.35;3.00;;;3.80;40.00;;;;;;4950341;28;20212;-86
2021/11/24 04:53:38;;;;;;;6.70;4.53;;;4.10;42.30;;;;;;4945066;28;20348;-88
2021/11/24 04:56:26;;;;;;;8.55;3.25;;;3.90;42.20;;;;;;4949326;28;20687;-87
2021/11/24 04:59:15;;;;;;;3.97;2.60;;;3.90;41.80;;;;;;4953020;29;20239;-87
2021/11/24 05:02:04;;;;;;;6.28;3.15;;;4.00;42.50;;;;;;4950074;28;20578;-88
2021/11/24 05:04:54;;;;;;;4.30;2.88;;;4.00;42.10;;;;;;4953038;28;20261;-88
2021/11/24 05:07:42;;;;;;;5.00;2.85;;;4.30;41.20;;;;;;4947551;28;20243;-87
2021/11/24 05:10:32;;;;;;;5.38;2.88;;;4.00;40.70;;;;;;4948131;28;20225;-86
2021/11/24 05:13:21;;;;;;;4.63;4.18;;;3.90;42.30;;;;;;4949456;28;20214;-88
2021/11/24 05:16:09;;;;;;;3.70;3.25;;;4.00;41.40;;;;;;4948776;28;20552;-87
2021/11/24 05:18:58;;;;;;;4.15;3.15;;;3.70;42.10;;;;;;4954903;28;20223;-87
2021/11/24 05:21:50;;;;;;;7.45;3.20;;;3.80;43.40;;;;;;4951687;28;20215;-82
2021/11/24 05:24:38;;;;;;;4.13;3.17;;;3.80;39.90;;;;;;4956381;28;20213;-86
2021/11/24 05:27:28;;;;;;;4.60;3.22;;;3.90;43.20;;;;;;4962125;28;20226;-87
2021/11/24 05:30:20;;;;;;;7.10;4.18;;;3.80;43.60;;;;;;4945263;28;20217;-86
2021/11/24 05:33:08;;;;;;;3.70;3.20;;;3.90;42.30;;;;;;4955895;28;20210;-87
2021/11/24 05:35:57;;;;;;;4.90;3.85;;;3.90;41.90;;;;;;4946807;29;20204;-85
2021/11/24 05:38:47;;;;;;;4.70;3.45;;;3.90;41.40;;;;;;4948928;28;20235;-85
2021/11/24 05:41:39;;;;;;;3.38;2.85;;;3.90;40.80;;;;;;4944784;28;20212;-87
2021/11/24 05:44:32;;;;;;;4.25;3.20;;;3.80;40.00;;;;;;4955749;28;20435;-84
2021/11/24 05:50:39;;;;;;;3.45;3.15;;;3.80;38.80;;;;;;4949896;29;20623;-88
2021/11/24 05:53:27;;;;;;;6.95;3.53;;;3.80;39.60;;;;;;4954060;29;20210;-87
2021/11/24 05:56:16;;;;;;;4.65;4.00;;;3.80;38.70;;;;;;4947025;28;20221;-88
2021/11/24 05:59:05;;;;;;;5.35;2.63;;;4.00;39.70;;;;;;4953785;29;20211;-87
2021/11/24 06:01:55;;;;;;;3.17;2.63;;;3.70;38.90;;;;;;4953871;29;20212;-87
2021/11/24 06:04:43;;;;;;;4.90;3.38;;;3.70;38.50;;;;;;4950727;29;20210;-86
2021/11/24 06:07:32;;;;;;;4.50;2.88;;;3.70;35.10;;;;;;4951794;28;20268;-85
2021/11/24 06:10:21;;;;;;;4.32;3.92;;;3.70;34.10;;;;;;4952011;29;20196;-85
2021/11/24 06:13:09;;;;;;;3.70;3.40;;;3.70;34.10;;;;;;4950368;29;20580;-85
2021/11/24 06:15:58;;;;;;;4.13;3.60;;;3.90;33.10;;;;;;4954016;29;20220;-85
2021/11/24 06:18:48;;;;;;;5.10;3.58;;;3.60;29.80;;;;;;4952539;29;20223;-86
2021/11/24 06:21:37;;;;;;;7.60;3.58;;;3.50;30.00;;;;;;4954348;29;20209;-85
2021/11/24 06:24:26;;;;;;;6.88;3.80;;;3.70;30.30;;;;;;4955379;29;20286;-84
2021/11/24 06:27:15;;;;;;;4.80;3.00;;;3.50;30.00;;;;;;4951965;29;20803;-85
2021/11/24 06:30:06;;;;;;;6.55;3.60;;;3.60;31.00;;;;;;4957160;28;20214;-84
2021/11/24 06:32:55;;;;;;;4.25;3.85;;;3.50;29.70;;;;;;4953616;29;20203;-87
2021/11/24 06:35:45;;;;;;;8.38;3.90;;;3.50;30.00;;;;;;4950787;28;20257;-86
2021/11/24 06:38:33;;;;;;;7.40;3.63;;;3.40;29.50;;;;;;4950789;28;20573;-86
2021/11/24 06:41:22;;;;;;;3.83;3.47;;;3.50;34.30;;;;;;4954275;28;20210;-87
2021/11/24 06:44:11;;;;;;;5.80;4.32;;;3.50;32.90;;;;;;4946356;29;20200;-88
2021/11/24 06:47:00;;;;;;;4.97;4.53;;;3.50;36.00;;;;;;4953379;28;20219;-88
2021/11/24 06:49:49;;;;;;;6.63;4.38;;;3.50;35.60;;;;;;4952851;29;20324;-87
2021/11/24 06:52:40;;;;;;;4.03;3.17;;;3.60;35.80;;;;;;4945421;29;20218;-87
2021/11/24 06:55:28;;;;;;;3.83;3.53;;;3.60;34.10;;;;;;4954855;29;20208;-88
2021/11/24 06:58:17;;;;;;;3.40;3.10;;;3.50;31.20;;;;;;4947118;29;20708;-87
2021/11/24 07:01:06;;;;;;;5.85;3.80;;;3.40;31.50;;;;;;4953773;29;20206;-87
2021/11/24 07:04:14;;;;;;;6.70;3.95;;;3.50;33.90;;;;;;4951679;29;20282;-87
2021/11/24 07:07:03;;;;;;;6.88;3.45;;;3.50;34.40;;;;;;4953414;28;20199;-88
2021/11/24 07:09:53;;;;;;;11.10;4.13;;;3.50;32.00;;;;;;4951491;28;20672;-89
2021/11/24 07:12:42;;;;;;;5.22;3.85;;;3.50;33.40;;;;;;4950143;29;20211;-88
2021/11/24 07:15:32;;;;;;;5.80;3.17;;;3.50;33.20;;;;;;4945658;29;20218;-88
2021/11/24 07:18:21;;;;;;;7.10;4.53;;;3.50;32.80;;;;;;4951150;28;20223;-86
2021/11/24 07:21:09;;;;;;;7.05;4.80;;;3.50;33.70;;;;;;4952642;28;20435;-86
2021/11/24 07:23:58;;;;;;;5.82;4.22;;;3.50;33.10;;;;;;4943591;29;20952;-90
2021/11/24 07:26:49;;;;;;;5.32;3.80;;;3.50;32.60;;;;;;4945389;29;20217;-86
2021/11/24 07:29:37;;;;;;;5.95;4.85;;;3.60;32.70;;;;;;4941148;28;20243;-86
2021/11/24 07:32:26;;;;;;;10.50;6.78;;;3.50;33.00;;;;;;4948551;29;20224;-86
2021/11/24 07:35:15;;;;;;;6.82;4.70;;;3.60;35.10;;;;;;4951111;29;20693;-85
2021/11/24 07:38:04;;;;;;;5.88;4.70;;;3.60;32.00;;;;;;4952648;28;20224;-85
2021/11/24 07:40:52;;;;;;;5.63;4.78;;;3.60;34.50;;;;;;4941807;29;20806;-85
2021/11/24 07:43:42;;;;;;;7.90;4.97;;;3.50;35.80;;;;;;4945252;29;20222;-84
2021/11/24 07:46:31;;;;;;;6.88;5.20;;;3.60;37.90;;;;;;4945758;28;20218;-85
2021/11/24 07:49:19;;;;;;;12.07;5.50;;;3.70;36.80;;;;;;4934621;29;20235;-83
2021/11/24 07:52:08;;;;;;;7.60;6.45;;;3.60;37.80;;;;;;4946204;29;20232;-84
2021/11/24 07:54:57;;;;;;;11.45;5.95;;;3.70;40.00;;;;;;4948613;29;20202;-86
2021/11/24 07:57:46;;;;;;;8.00;5.30;;;3.80;44.40;;;;;;4948847;29;20228;-85
2021/11/24 08:00:36;;;;;;;10.10;6.60;;;3.80;43.30;;;;;;4947719;29;20302;-85
2021/11/24 08:03:25;;;;;;;8.30;7.22;;;3.90;49.10;;;;;;4939126;29;20211;-85
2021/11/24 08:06:14;;;;;;;10.93;6.82;;;3.90;47.00;;;;;;4943207;29;20703;-85
2021/11/24 08:09:02;;;;;;;9.30;6.57;;;4.00;49.00;;;;;;4950455;29;22693;-85
2021/11/24 08:11:51;;;;;;;8.25;6.13;;;4.00;49.10;;;;;;4945405;29;20222;-85
2021/11/24 08:14:40;;;;;;;6.90;5.47;;;4.10;53.50;;;;;;4953883;28;20210;-83
2021/11/24 08:17:30;;;;;;;8.00;5.70;;;3.90;54.10;;;;;;4950960;29;20805;-86
2021/11/24 08:20:18;;;;;;;10.93;6.88;;;4.20;51.80;;;;;;4944051;29;20490;-84
2021/11/24 08:23:08;;;;;;;10.02;5.65;;;4.10;53.50;;;;;;4952658;29;20260;-82
2021/11/24 08:25:57;;;;;;;11.13;5.65;;;4.20;57.70;;;;;;4950790;28;20825;-85
2021/11/24 08:28:45;;;;;;;8.73;5.55;;;4.30;63.80;;;;;;4948153;28;20224;-83
2021/11/24 08:31:39;;;;;;;6.28;5.63;;;4.20;73.20;;;;;;4948713;28;20208;-84
2021/11/24 08:34:29;;;;;;;8.25;5.47;;;4.30;93.90;;;;;;4940265;29;20216;-85
2021/11/24 08:37:17;;;;;;;8.73;5.47;;;4.30;99.90;;;;;;4951907;28;20444;-84
2021/11/24 08:40:08;;;;;;;8.55;4.50;;;4.50;99.90;;;;;;4948051;29;20213;-84
2021/11/24 08:42:56;;;;;;;9.07;5.60;;;4.60;99.90;;;;;;4952627;29;20220;-84
2021/11/24 08:45:45;;;;;;;8.10;5.85;;;4.80;99.90;;;;;;4952347;29;20202;-85
2021/11/24 08:48:34;;;;;;;8.07;4.95;;;4.80;99.90;;;;;;4944096;29;20217;-85
2021/11/24 08:51:24;;;;;;;8.20;5.90;;;5.00;99.90;;;;;;4952964;29;20213;-84
2021/11/24 08:54:13;;;;;;;8.73;5.47;;;5.10;99.90;;;;;;4948830;29;20294;-84
2021/11/24 08:57:02;;;;;;;11.25;7.93;;;5.30;99.90;;;;;;4941726;29;20453;-83
2021/11/24 08:59:50;;;;;;;8.18;5.45;;;5.40;99.90;;;;;;4952743;29;20201;-85
2021/11/24 09:02:39;;;;;;;8.25;5.30;;;5.40;99.90;;;;;;4953130;28;20196;-83
2021/11/24 09:05:28;;;;;;;7.20;5.50;;;5.50;99.90;;;;;;4952558;29;20577;-83
2021/11/24 09:08:18;;;;;;;9.45;6.25;;;5.60;99.90;;;;;;4953051;28;20456;-81
2021/11/24 09:11:06;;;;;;;9.33;6.33;;;5.70;99.90;;;;;;4942930;29;20270;-84
2021/11/24 09:13:55;;;;;;;13.00;8.60;;;5.70;99.90;;;;;;4951275;29;20431;-85
2021/11/24 09:16:48;;;;;;;10.90;6.10;;;5.80;99.90;;;;;;4954293;29;20279;-82
2021/11/24 09:19:38;;;;;;;9.07;6.53;;;5.80;99.90;;;;;;4947591;29;20463;-83
2021/11/24 09:22:48;;;;;;;10.10;5.80;;;5.80;99.90;;;;;;4946563;29;20523;-83
2021/11/24 09:25:46;;;;;;;7.93;5.57;;;5.60;99.90;;;;;;4950693;29;20447;-83
2021/11/24 09:28:37;;;;;;;11.63;6.40;;;5.80;99.90;;;;;;4953014;29;20455;-83
2021/11/24 09:31:26;;;;;;;12.67;6.53;;;5.80;99.90;;;;;;4950929;29;20207;-84
2021/11/24 09:34:14;;;;;;;8.03;6.10;;;5.90;99.90;;;;;;4953358;29;20455;-82
2021/11/24 09:37:03;;;;;;;12.20;5.90;;;6.10;99.90;;;;;;4947731;28;20455;-78
2021/11/24 09:39:53;;;;;;;10.80;7.50;;;6.20;99.90;;;;;;4940439;29;20522;-84
2021/11/24 09:42:45;;;;;;;8.90;6.30;;;6.20;99.90;;;;;;4951210;28;20520;-83
2021/11/24 09:45:34;;;;;;;15.30;7.20;;;6.20;99.90;;;;;;4954126;28;20456;-85
2021/11/24 09:48:23;;;;;;;12.70;8.05;;;6.20;99.90;;;;;;4946060;29;20435;-85
2021/11/24 09:51:12;;;;;;;8.70;6.50;;;6.10;99.90;;;;;;4951452;28;20240;-85
2021/11/24 09:54:03;;;;;;;7.10;5.13;;;6.20;99.90;;;;;;4950154;28;20450;-86
2021/11/24 09:56:52;;;;;;;12.00;5.53;;;6.40;99.90;;;;;;4950619;29;20447;-85
2021/11/24 09:59:42;;;;;;;9.73;5.97;;;6.60;99.90;;;;;;4955287;29;20452;-84
2021/11/24 10:02:31;;;;;;;9.30;5.90;;;6.70;99.90;;;;;;4954023;29;20447;-84
2021/11/24 10:05:22;;;;;;;12.13;7.38;;;6.70;99.90;;;;;;4947119;28;20566;-84
2021/11/24 10:08:10;;;;;;;12.90;6.87;;;6.70;99.90;;;;;;4948107;28;20231;-85
2021/11/24 10:10:59;;;;;;;7.30;5.10;;;6.90;99.90;;;;;;4949231;29;20462;-87
2021/11/24 10:13:48;;;;;;;12.03;6.77;;;7.00;99.90;;;;;;4950157;29;20452;-86
2021/11/24 10:16:44;;;;;;;11.90;7.13;;;7.10;99.90;;;;;;4946553;29;20448;-86
2021/11/24 10:19:33;;;;;;;7.53;5.63;;;7.20;99.90;;;;;;4954275;29;20452;-86
2021/11/24 10:22:22;;;;;;;10.63;6.83;;;7.30;99.90;;;;;;4950924;29;20452;-86
2021/11/24 10:25:13;;;;;;;10.93;5.90;;;7.40;99.90;;;;;;4940022;29;20987;-86
2021/11/24 10:28:02;;;;;;;9.23;5.33;;;7.20;99.90;;;;;;4940976;29;20494;-87
2021/11/24 10:30:54;;;;;;;10.70;6.43;;;7.70;99.90;;;;;;4952571;28;20481;-85
2021/11/24 10:33:44;;;;;;;11.93;6.50;;;7.70;99.90;;;;;;4941634;29;20450;-86
2021/11/24 10:36:33;;;;;;;9.73;6.03;;;8.00;99.90;;;;;;4934199;29;20455;-86
2021/11/24 10:39:24;;;;;;;13.27;7.37;;;8.00;99.90;;;;;;4942699;29;20470;-86
2021/11/24 10:42:14;;;;;;;10.53;7.27;;;8.10;99.90;;;;;;4948656;29;20469;-85
2021/11/24 10:45:09;;;;;;;13.07;6.80;;;8.10;99.90;;;;;;4948344;29;20462;-85
2021/11/24 10:47:59;;;;;;;12.17;6.80;;;8.20;99.90;;;;;;4945305;28;20640;-85
2021/11/24 10:50:49;;;;;;;11.40;7.23;;;8.30;99.90;;;;;;4942873;29;20522;-85
2021/11/24 10:53:38;;;;;;;10.23;6.53;;;8.20;99.90;;;;;;4948794;28;20443;-84
2021/11/24 10:56:28;;;;;;;8.60;5.88;;;8.30;99.90;;;;;;4941589;29;20440;-84
2021/11/24 10:59:17;;;;;;;13.70;6.53;;;8.40;99.90;;;;;;4951164;29;20227;-83
2021/11/24 11:02:21;;;;;;;11.50;7.03;;;8.50;99.90;;;;;;4941761;29;20493;-86
2021/11/24 11:05:16;;;;;;;9.00;6.70;;;8.30;99.90;;;;;;4945872;28;20452;-87
2021/11/24 11:08:08;;;;;;;13.13;7.10;;;8.10;99.90;;;;;;4946324;29;20959;-86
2021/11/24 11:11:05;;;;;;;11.20;6.67;;;8.00;99.90;;;;;;4947853;29;21038;-86
2021/11/24 11:14:16;;;;;;;10.67;5.47;;;7.80;99.90;;;;;;4946395;29;20445;-88
2021/11/24 11:17:04;;;;;;;9.13;6.50;;;7.70;99.90;;;;;;4948160;29;20832;-85
2021/11/24 11:19:55;;;;;;;9.33;6.80;;;7.60;99.90;;;;;;4950092;29;20537;-87
2021/11/24 11:22:44;;;;;;;9.40;6.57;;;7.60;99.90;;;;;;4945346;29;20473;-86
2021/11/24 11:25:34;;;;;;;9.50;6.30;;;7.50;99.90;;;;;;4948904;28;20793;-86
2021/11/24 11:28:25;;;;;;;11.83;6.30;;;7.40;99.90;;;;;;4951648;28;21282;-85
2021/11/24 11:31:15;;;;;;;9.80;5.90;;;7.40;99.90;;;;;;4952284;29;21011;-85
2021/11/24 11:34:04;;;;;;;12.43;7.33;;;7.50;99.90;;;;;;4949764;28;20447;-86
2021/11/24 11:36:52;;;;;;;12.10;7.40;;;7.50;99.90;;;;;;4947386;28;20450;-85
2021/11/24 11:39:42;;;;;;;12.97;8.00;;;7.50;99.90;;;;;;4952125;29;20818;-86
2021/11/24 11:42:33;;;;;;;9.97;7.47;;;7.60;99.90;;;;;;4953064;28;20452;-84
2021/11/24 11:45:41;;;;;;;15.80;7.23;;;7.60;99.90;;;;;;4949953;28;20543;-85
2021/11/24 11:48:52;;;;;;;15.17;8.70;;;7.70;99.90;;;;;;4951200;29;20839;-84
2021/11/24 11:51:42;;;;;;;11.27;6.70;;;7.80;99.90;;;;;;4951622;28;20485;-85
2021/11/24 11:54:32;;;;;;;12.00;6.53;;;7.80;99.90;;;;;;4947567;29;20991;-87
2021/11/24 11:57:22;;;;;;;11.47;6.63;;;7.80;99.90;;;;;;4942358;29;20520;-86
2021/11/24 12:00:13;;;;;;;12.40;6.10;;;7.70;99.90;;;;;;4947402;29;20448;-86
2021/11/24 12:03:02;;;;;;;10.67;7.13;;;7.70;99.90;;;;;;4943261;29;20685;-86
2021/11/24 12:06:16;;;;;;;13.20;7.40;;;7.60;99.90;;;;;;4947350;28;20869;-86
2021/11/24 12:09:20;;;;;;;12.40;7.30;;;7.50;99.90;;;;;;4951789;29;20448;-82
2021/11/24 12:12:23;;;;;;;13.80;6.97;;;7.40;99.90;;;;;;4940832;29;20442;-82
2021/11/24 12:15:17;;;;;;;14.37;7.90;;;7.40;99.90;;;;;;4953058;28;20425;-83
2021/11/24 12:18:22;;;;;;;11.47;6.47;;;7.40;99.90;;;;;;4948310;28;20483;-86
2021/11/24 12:21:23;;;;;;;8.83;6.30;;;7.40;99.90;;;;;;4948194;28;20454;-86
2021/11/24 12:24:12;;;;;;;10.33;6.43;;;7.50;99.90;;;;;;4947568;29;22827;-85
2021/11/24 12:27:01;;;;;;;11.50;6.60;;;7.40;99.90;;;;;;4933098;29;20549;-86
2021/11/24 12:29:51;;;;;;;13.13;7.20;;;7.40;99.90;;;;;;4945817;29;20461;-84
2021/11/24 12:32:41;;;;;;;9.47;6.17;;;7.40;99.90;;;;;;4953231;28;20448;-84
2021/11/24 12:35:30;;;;;;;11.40;6.50;;;7.40;99.90;;;;;;4942238;29;20445;-86
2021/11/24 12:38:42;;;;;;;9.30;6.77;;;7.60;99.90;;;;;;4937455;29;20502;-86
2021/11/24 12:41:36;;;;;;;11.10;6.67;;;7.70;99.90;;;;;;4943285;28;20975;-86
2021/11/24 12:44:24;;;;;;;12.20;7.97;;;7.70;99.90;;;;;;4943680;28;20447;-86
2021/11/24 12:47:13;;;;;;;13.03;7.40;;;7.80;99.90;;;;;;4940269;29;20206;-86
2021/11/24 12:50:07;;;;;;;11.90;6.93;;;7.80;99.90;;;;;;4948175;29;20437;-85
2021/11/24 12:52:57;;;;;;;11.83;6.90;;;7.90;99.90;;;;;;4945740;28;20526;-86
2021/11/24 12:55:46;;;;;;;13.33;7.00;;;7.90;99.90;;;;;;4949480;29;20450;-84
2021/11/24 12:58:36;;;;;;;10.00;6.03;;;8.00;99.90;;;;;;4936416;29;20463;-86
2021/11/24 13:01:26;;;;;;;11.77;6.27;;;8.00;99.90;;;;;;4931346;28;20468;-85
2021/11/24 13:04:19;;;;;;;11.10;5.50;;;7.90;99.50;;;;;;4943986;29;20445;-85
2021/11/24 13:07:15;;;;;;;10.50;5.03;;;7.90;97.40;;;;;;4944051;29;20453;-86
2021/11/24 13:10:05;;;;;;;9.60;5.63;;;7.90;98.40;;;;;;4932737;28;20462;-86
2021/11/24 13:12:53;;;;;;;10.10;6.77;;;8.00;97.00;;;;;;4942000;28;20444;-86
2021/11/24 13:15:42;;;;;;;10.57;6.07;;;8.00;97.10;;;;;;4935561;28;20458;-86
2021/11/24 13:18:31;;;;;;;10.77;6.53;;;8.00;97.10;;;;;;4947298;28;20582;-85
2021/11/24 13:21:20;;;;;;;11.83;5.67;;;8.10;96.90;;;;;;4945942;28;20449;-86
2021/11/24 13:24:19;;;;;;;8.10;4.83;;;8.10;96.40;;;;;;4942827;29;20462;-87
2021/11/24 13:27:14;;;;;;;9.20;5.77;;;8.10;96.90;;;;;;4952447;28;20453;-87
2021/11/24 13:30:03;;;;;;;8.53;5.03;;;8.20;97.00;;;;;;4949943;29;20443;-87
2021/11/24 13:33:01;;;;;;;8.30;5.73;;;8.10;95.80;;;;;;4940418;28;20460;-85
2021/11/24 13:35:52;;;;;;;7.00;4.63;;;8.20;96.30;;;;;;4937892;29;20983;-86
2021/11/24 13:38:43;;;;;;;7.87;4.80;;;8.20;96.30;;;;;;4949817;28;20486;-85
2021/11/24 13:41:38;;;;;;;14.30;5.87;;;8.30;96.70;;;;;;4943278;28;20445;-86
2021/11/24 13:44:26;;;;;;;6.90;5.20;;;8.30;95.80;;;;;;4951412;28;20975;-85
2021/11/24 13:47:17;;;;;;;13.47;5.70;;;8.20;96.00;;;;;;4949900;29;20985;-84
2021/11/24 13:50:06;;;;;;;8.80;5.73;;;8.20;96.20;;;;;;4954560;28;20455;-87
2021/11/24 13:53:24;;;;;;;11.83;6.33;;;8.20;96.70;;;;;;4939854;28;21812;-86
2021/11/24 13:56:22;;;;;;;11.07;6.10;;;8.20;96.20;;;;;;4933069;29;20460;-84
2021/11/24 13:59:16;;;;;;;10.53;5.97;;;8.00;93.80;;;;;;4952410;28;20478;-83
2021/11/24 14:02:07;;;;;;;9.07;5.90;;;7.80;93.80;;;;;;4950147;28;20451;-80
2021/11/24 14:04:59;;;;;;;7.10;4.27;;;7.80;93.50;;;;;;4950932;28;20457;-81
2021/11/24 14:07:49;;;;;;;12.20;6.75;;;7.80;95.00;;;;;;4948542;29;20436;-85
2021/11/24 14:10:38;;;;;;;9.90;5.73;;;7.80;93.90;;;;;;4949631;29;20208;-83
2021/11/24 14:13:33;;;;;;;8.17;5.37;;;7.60;93.60;;;;;;4954449;29;20854;-86
2021/11/24 14:16:29;;;;;;;10.57;5.43;;;7.60;92.80;;;;;;4947959;29;20543;-84
2021/11/24 14:19:18;;;;;;;9.40;6.33;;;7.60;93.70;;;;;;4952312;29;20484;-84
2021/11/24 14:22:07;;;;;;;6.47;4.70;;;7.60;94.60;;;;;;4947038;28;20451;-83
2021/11/24 14:24:56;;;;;;;6.43;5.20;;;7.60;92.70;;;;;;4946854;28;20466;-83
2021/11/24 14:27:47;;;;;;;7.77;4.90;;;7.60;93.00;;;;;;4946966;29;20486;-84
2021/11/24 14:30:36;;;;;;;11.07;5.30;;;7.50;93.80;;;;;;4944259;29;20597;-84
2021/11/24 14:33:28;;;;;;;10.57;5.60;;;7.60;95.90;;;;;;4944783;28;20446;-84
2021/11/24 14:36:17;;;;;;;6.57;4.80;;;7.60;94.90;;;;;;4941879;28;20453;-82
2021/11/24 14:39:05;;;;;;;10.00;5.07;;;7.60;95.50;;;;;;4952079;28;20893;-85
2021/11/24 14:41:54;;;;;;;10.50;6.60;;;7.60;94.00;;;;;;4940036;28;21140;-84
2021/11/24 14:44:43;;;;;;;9.97;6.20;;;7.40;94.50;;;;;;4940767;28;21043;-84
2021/11/24 14:47:31;;;;;;;10.37;5.90;;;7.40;95.10;;;;;;4940781;28;20454;-84
2021/11/24 14:50:23;;;;;;;10.13;4.67;;;7.40;95.10;;;;;;4952449;28;20460;-82
2021/11/24 14:53:13;;;;;;;9.77;5.80;;;7.40;94.10;;;;;;4945615;28;20479;-84
2021/11/24 14:56:16;;;;;;;5.80;4.50;;;7.30;93.60;;;;;;4948919;29;20594;-83
2021/11/24 14:59:05;;;;;;;10.57;5.63;;;7.40;93.50;;;;;;4951124;28;20495;-85